sensor_id;sensor_type;location;lat;lon;timestamp;pressure;altitude;pressure_sealevel;temperature;humidity
7832;BME280;3961;42.058;25.586;2023-04-04T00:01:15;63398.03;;;10.47;100.00
7832;BME280;3961;42.058;25.586;2023-04-04T00:03:41;63393.31;;;10.47;100.00
7832;BME280;3961;42.058;25.586;2023-04-04T00:06:07;63383.63;;;10.34;100.00
7832;BME280;3961;42.058;25.586;2023-04-04T00:08:32;63382.38;;;10.37;100.00
7832;BME280;3961;42.058;25.586;2023-04-04T00:11:01;63383.63;;;10.34;100.00
7832;BME280;3961;42.058;25.586;2023-04-04T00:13:27;63376.69;;;10.28;100.00
7832;BME280;3961;42.058;25.586;2023-04-04T00:15:53;63384.09;;;10.39;100.00
7832;BME280;3961;42.058;25.586;2023-04-04T00:18:19;63374.63;;;10.28;100.00
7832;BME280;3961;42.058;25.586;2023-04-04T00:20:44;63400.94;;;10.49;100.00
7832;BME280;3961;42.058;25.586;2023-04-04T00:23:10;63393.91;;;10.48;100.00
7832;BME280;3961;42.058;25.586;2023-04-04T00:25:36;63394.81;;;10.46;100.00
7832;BME280;3961;42.058;25.586;2023-04-04T00:28:02;63385.59;;;10.38;100.00
7832;BME280;3961;42.058;25.586;2023-04-04T00:30:28;63397.13;;;10.48;100.00
7832;BME280;3961;42.058;25.586;2023-04-04T00:32:54;63393.66;;;10.45;100.00
7832;BME280;3961;42.058;25.586;2023-04-04T00:35:21;63383.28;;;10.36;100.00
7832;BME280;3961;42.058;25.586;2023-04-04T00:37:46;63397.47;;;10.46;100.00
7832;BME280;3961;42.058;25.586;2023-04-04T00:40:12;63415.63;;;10.64;100.00
7832;BME280;3961;42.058;25.586;2023-04-04T00:42:37;63400.81;;;10.54;100.00
7832;BME280;3961;42.058;25.586;2023-04-04T00:45:06;63407.75;;;10.60;100.00
7832;BME280;3961;42.058;25.586;2023-04-04T00:47:33;63411.56;;;10.61;100.00
7832;BME280;3961;42.058;25.586;2023-04-04T00:49:59;63420.59;;;10.66;100.00
7832;BME280;3961;42.058;25.586;2023-04-04T00:52:25;63395.88;;;10.52;100.00
7832;BME280;3961;42.058;25.586;2023-04-04T00:54:53;63435.81;;;10.82;100.00
7832;BME280;3961;42.058;25.586;2023-04-04T00:57:19;63405.44;;;10.58;100.00
7832;BME280;3961;42.058;25.586;2023-04-04T00:59:44;63441.38;;;10.85;100.00
7832;BME280;3961;42.058;25.586;2023-04-04T01:02:10;63447.97;;;10.93;100.00
7832;BME280;3961;42.058;25.586;2023-04-04T01:04:36;63437.22;;;10.86;100.00
7832;BME280;3961;42.058;25.586;2023-04-04T01:07:02;63454.91;;;10.99;100.00
7832;BME280;3961;42.058;25.586;2023-04-04T01:09:28;63464.94;;;11.10;100.00
7832;BME280;3961;42.058;25.586;2023-04-04T01:11:54;63465.28;;;11.08;100.00
7832;BME280;3961;42.058;25.586;2023-04-04T01:14:21;63454.66;;;10.96;100.00
7832;BME280;3961;42.058;25.586;2023-04-04T01:16:48;63436.75;;;10.81;100.00
7832;BME280;3961;42.058;25.586;2023-04-04T01:19:21;63418.50;;;10.67;100.00
7832;BME280;3961;42.058;25.586;2023-04-04T01:21:49;63425.78;;;10.71;100.00
7832;BME280;3961;42.058;25.586;2023-04-04T01:24:17;63448.88;;;10.91;100.00
7832;BME280;3961;42.058;25.586;2023-04-04T01:26:43;63427.72;;;10.75;100.00
7832;BME280;3961;42.058;25.586;2023-04-04T01:29:11;63410.66;;;10.62;100.00
7832;BME280;3961;42.058;25.586;2023-04-04T01:31:42;63435.59;;;10.80;100.00
7832;BME280;3961;42.058;25.586;2023-04-04T01:34:31;63426.81;;;10.76;100.00
7832;BME280;3961;42.058;25.586;2023-04-04T01:37:05;63438.13;;;10.84;100.00
7832;BME280;3961;42.058;25.586;2023-04-04T01:39:47;63436.41;;;10.83;100.00
7832;BME280;3961;42.058;25.586;2023-04-04T01:42:14;63419.31;;;10.70;100.00
7832;BME280;3961;42.058;25.586;2023-04-04T01:44:41;63411.22;;;10.63;100.00
7832;BME280;3961;42.058;25.586;2023-04-04T01:47:08;63421.97;;;10.70;100.00
7832;BME280;3961;42.058;25.586;2023-04-04T01:49:33;63409.84;;;10.59;100.00
7832;BME280;3961;42.058;25.586;2023-04-04T01:52:00;63435.25;;;10.82;100.00
7832;BME280;3961;42.058;25.586;2023-04-04T01:54:26;63431.78;;;10.78;100.00
7832;BME280;3961;42.058;25.586;2023-04-04T01:56:52;63401.66;;;10.57;100.00
7832;BME280;3961;42.058;25.586;2023-04-04T01:59:18;63387.31;;;10.39;100.00
7832;BME280;3961;42.058;25.586;2023-04-04T02:01:43;63426.56;;;10.74;100.00
7832;BME280;3961;42.058;25.586;2023-04-04T02:04:09;63407.19;;;10.59;100.00
7832;BME280;3961;42.058;25.586;2023-04-04T02:06:38;63440.22;;;10.84;100.00
7832;BME280;3961;42.058;25.586;2023-04-04T02:09:04;63415.03;;;10.64;100.00
7832;BME280;3961;42.058;25.586;2023-04-04T02:11:30;63425.41;;;10.73;100.00
7832;BME280;3961;42.058;25.586;2023-04-04T02:13:56;63422.78;;;10.73;100.00
7832;BME280;3961;42.058;25.586;2023-04-04T02:16:21;63430.97;;;10.75;100.00
7832;BME280;3961;42.058;25.586;2023-04-04T02:18:47;63388.25;;;10.38;100.00
7832;BME280;3961;42.058;25.586;2023-04-04T02:21:13;63450.28;;;10.95;100.00
7832;BME280;3961;42.058;25.586;2023-04-04T02:23:38;63446.56;;;10.89;100.00
7832;BME280;3961;42.058;25.586;2023-04-04T02:26:04;63424.28;;;10.72;100.00
7832;BME280;3961;42.058;25.586;2023-04-04T02:28:30;63415.03;;;10.64;100.00
7832;BME280;3961;42.058;25.586;2023-04-04T02:30:59;63412.16;;;10.61;100.00
7832;BME280;3961;42.058;25.586;2023-04-04T02:33:27;63408.91;;;10.61;100.00
7832;BME280;3961;42.058;25.586;2023-04-04T02:35:56;63423.34;;;10.73;100.00
7832;BME280;3961;42.058;25.586;2023-04-04T02:38:22;63423.34;;;10.73;100.00
7832;BME280;3961;42.058;25.586;2023-04-04T02:40:48;63421.41;;;10.69;100.00
7832;BME280;3961;42.058;25.586;2023-04-04T02:43:13;63427.97;;;10.77;100.00
7832;BME280;3961;42.058;25.586;2023-04-04T02:45:39;63438.94;;;10.87;100.00
7832;BME280;3961;42.058;25.586;2023-04-04T02:48:05;63429.69;;;10.79;100.00
7832;BME280;3961;42.058;25.586;2023-04-04T02:50:31;63403.13;;;10.56;100.00
7832;BME280;3961;42.058;25.586;2023-04-04T02:53:03;63446.00;;;10.89;100.00
7832;BME280;3961;42.058;25.586;2023-04-04T02:55:28;63450.50;;;10.97;100.00
7832;BME280;3961;42.058;25.586;2023-04-04T02:57:54;63448.78;;;10.96;100.00
7832;BME280;3961;42.058;25.586;2023-04-04T03:00:20;63442.41;;;10.90;100.00
7832;BME280;3961;42.058;25.586;2023-04-04T03:02:55;63436.88;;;10.88;100.00
7832;BME280;3961;42.058;25.586;2023-04-04T03:05:25;63432.94;;;10.80;100.00
7832;BME280;3961;42.058;25.586;2023-04-04T03:07:55;63428.53;;;10.78;100.00
7832;BME280;3961;42.058;25.586;2023-04-04T03:10:22;63438.03;;;10.89;100.00
7832;BME280;3961;42.058;25.586;2023-04-04T03:12:48;63433.75;;;10.83;100.00
7832;BME280;3961;42.058;25.586;2023-04-04T03:15:13;63416.09;;;10.69;100.00
7832;BME280;3961;42.058;25.586;2023-04-04T03:17:39;63418.50;;;10.67;100.00
7832;BME280;3961;42.058;25.586;2023-04-04T03:20:05;63426.00;;;10.73;100.00
7832;BME280;3961;42.058;25.586;2023-04-04T03:22:31;63434.91;;;10.84;100.00
7832;BME280;3961;42.058;25.586;2023-04-04T03:24:56;63450.84;;;10.95;100.00
7832;BME280;3961;42.058;25.586;2023-04-04T03:27:22;63414.13;;;10.65;100.00
7832;BME280;3961;42.058;25.586;2023-04-04T03:29:47;63420.47;;;10.71;100.00
7832;BME280;3961;42.058;25.586;2023-04-04T03:32:13;63424.97;;;10.68;100.00
7832;BME280;3961;42.058;25.586;2023-04-04T03:34:38;63414.13;;;10.65;100.00
7832;BME280;3961;42.058;25.586;2023-04-04T03:37:04;63412.16;;;10.61;100.00
7832;BME280;3961;42.058;25.586;2023-04-04T03:39:29;63412.16;;;10.61;100.00
7832;BME280;3961;42.058;25.586;2023-04-04T03:41:55;63409.84;;;10.59;100.00
7832;BME280;3961;42.058;25.586;2023-04-04T03:44:21;63409.50;;;10.61;100.00
7832;BME280;3961;42.058;25.586;2023-04-04T03:46:47;63401.06;;;10.56;100.00
7832;BME280;3961;42.058;25.586;2023-04-04T03:49:12;63404.28;;;10.57;100.00
7832;BME280;3961;42.058;25.586;2023-04-04T03:51:38;63386.97;;;10.41;100.00
7832;BME280;3961;42.058;25.586;2023-04-04T03:54:04;63400.81;;;10.54;100.00
7832;BME280;3961;42.058;25.586;2023-04-04T03:56:30;63415.38;;;10.62;100.00
7832;BME280;3961;42.058;25.586;2023-04-04T03:58:57;63402.09;;;10.50;100.00
7832;BME280;3961;42.058;25.586;2023-04-04T04:01:22;63408.78;;;10.54;100.00
7832;BME280;3961;42.058;25.586;2023-04-04T04:03:48;63402.31;;;10.53;100.00
7832;BME280;3961;42.058;25.586;2023-04-04T04:06:13;63390.19;;;10.42;100.00
7832;BME280;3961;42.058;25.586;2023-04-04T04:08:39;63394.13;;;10.50;100.00
7832;BME280;3961;42.058;25.586;2023-04-04T04:11:05;63392.41;;;10.49;100.00
7832;BME280;3961;42.058;25.586;2023-04-04T04:13:33;63392.50;;;10.44;100.00
7832;BME280;3961;42.058;25.586;2023-04-04T04:16:02;63386.63;;;10.43;100.00
7832;BME280;3961;42.058;25.586;2023-04-04T04:18:27;63367.91;;;10.25;100.00
7832;BME280;3961;42.058;25.586;2023-04-04T04:20:57;63405.91;;;10.51;100.00
7832;BME280;3961;42.058;25.586;2023-04-04T04:23:31;63399.44;;;10.50;100.00
7832;BME280;3961;42.058;25.586;2023-04-04T04:25:57;63403.72;;;10.56;100.00
7832;BME280;3961;42.058;25.586;2023-04-04T04:28:22;63379.13;;;10.37;100.00
7832;BME280;3961;42.058;25.586;2023-04-04T04:30:51;63405.13;;;10.60;100.00
7832;BME280;3961;42.058;25.586;2023-04-04T04:33:17;63391.59;;;10.46;100.00
7832;BME280;3961;42.058;25.586;2023-04-04T04:35:43;63412.72;;;10.62;100.00
7832;BME280;3961;42.058;25.586;2023-04-04T04:38:09;63413.19;;;10.67;100.00
7832;BME280;3961;42.058;25.586;2023-04-04T04:40:35;63375.09;;;10.33;100.00
7832;BME280;3961;42.058;25.586;2023-04-04T04:43:01;63410.88;;;10.65;100.00
7832;BME280;3961;42.058;25.586;2023-04-04T04:45:26;63406.38;;;10.56;100.00
7832;BME280;3961;42.058;25.586;2023-04-04T04:47:52;63359.25;;;10.17;100.00
7832;BME280;3961;42.058;25.586;2023-04-04T04:50:18;63398.28;;;10.49;100.00
7832;BME280;3961;42.058;25.586;2023-04-04T04:52:44;63412.50;;;10.59;100.00
7832;BME280;3961;42.058;25.586;2023-04-04T04:55:10;63431.78;;;10.78;100.00
7832;BME280;3961;42.058;25.586;2023-04-04T04:57:37;63424.63;;;10.70;100.00
7832;BME280;3961;42.058;25.586;2023-04-04T05:00:03;63427.97;;;10.77;100.00
7832;BME280;3961;42.058;25.586;2023-04-04T05:02:29;63420.47;;;10.71;100.00
7832;BME280;3961;42.058;25.586;2023-04-04T05:04:55;63427.97;;;10.77;100.00
7832;BME280;3961;42.058;25.586;2023-04-04T05:07:22;63405.94;;;10.63;100.00
7832;BME280;3961;42.058;25.586;2023-04-04T05:09:48;63413.53;;;10.65;100.00
7832;BME280;3961;42.058;25.586;2023-04-04T05:12:14;63434.31;;;10.83;100.00
7832;BME280;3961;42.058;25.586;2023-04-04T05:14:40;63435.25;;;10.82;100.00
7832;BME280;3961;42.058;25.586;2023-04-04T05:17:05;63418.63;;;10.74;100.00
7832;BME280;3961;42.058;25.586;2023-04-04T05:19:31;63398.28;;;10.49;100.00
7832;BME280;3961;42.058;25.586;2023-04-04T05:21:56;63405.56;;;10.53;100.00
7832;BME280;3961;42.058;25.586;2023-04-04T05:24:22;63436.28;;;10.87;100.00
7832;BME280;3961;42.058;25.586;2023-04-04T05:26:48;63439.28;;;10.85;100.00
7832;BME280;3961;42.058;25.586;2023-04-04T05:29:13;63440.44;;;10.86;100.00
7832;BME280;3961;42.058;25.586;2023-04-04T05:31:39;63437.56;;;10.84;100.00
7832;BME280;3961;42.058;25.586;2023-04-04T05:34:06;63424.63;;;10.70;100.00
7832;BME280;3961;42.058;25.586;2023-04-04T05:36:34;63444.50;;;10.90;100.00
7832;BME280;3961;42.058;25.586;2023-04-04T05:39:01;63474.78;;;11.19;100.00
7832;BME280;3961;42.058;25.586;2023-04-04T05:41:29;63508.63;;;11.46;100.00
7832;BME280;3961;42.058;25.586;2023-04-04T05:43:55;63470.63;;;11.20;100.00
7832;BME280;3961;42.058;25.586;2023-04-04T05:46:21;63444.50;;;10.90;100.00
7832;BME280;3961;42.058;25.586;2023-04-04T05:48:47;63450.28;;;10.95;100.00
7832;BME280;3961;42.058;25.586;2023-04-04T05:51:13;63415.28;;;10.66;100.00
7832;BME280;3961;42.058;25.586;2023-04-04T05:53:38;63473.72;;;11.13;100.00
7832;BME280;3961;42.058;25.586;2023-04-04T05:56:03;63477.44;;;11.19;100.00
7832;BME280;3961;42.058;25.586;2023-04-04T05:58:29;63447.38;;;10.92;100.00
7832;BME280;3961;42.058;25.586;2023-04-04T06:00:55;63475.13;;;11.17;100.00
7832;BME280;3961;42.058;25.586;2023-04-04T06:03:20;63498.00;;;11.34;100.00
7832;BME280;3961;42.058;25.586;2023-04-04T06:05:51;63477.78;;;11.17;100.00
7832;BME280;3961;42.058;25.586;2023-04-04T06:08:17;63455.94;;;11.04;100.00
7832;BME280;3961;42.058;25.586;2023-04-04T06:10:43;63465.28;;;11.08;100.00
7832;BME280;3961;42.058;25.586;2023-04-04T06:13:08;63465.88;;;11.08;100.00
7832;BME280;3961;42.058;25.586;2023-04-04T06:15:34;63467.03;;;11.09;100.00
7832;BME280;3961;42.058;25.586;2023-04-04T06:17:59;63470.50;;;11.13;100.00
7832;BME280;3961;42.058;25.586;2023-04-04T06:20:25;63441.38;;;10.85;100.00
7832;BME280;3961;42.058;25.586;2023-04-04T06:22:51;63454.56;;;11.01;100.00
7832;BME280;3961;42.058;25.586;2023-04-04T06:25:17;63440.69;;;10.89;100.00
7832;BME280;3961;42.058;25.586;2023-04-04T06:27:43;63469.00;;;11.14;100.00
7832;BME280;3961;42.058;25.586;2023-04-04T06:30:09;63456.63;;;11.00;100.00
7832;BME280;3961;42.058;25.586;2023-04-04T06:32:34;63474.53;;;11.16;100.00
7832;BME280;3961;42.058;25.586;2023-04-04T06:35:00;63463.22;;;11.08;100.00
7832;BME280;3961;42.058;25.586;2023-04-04T06:37:25;63523.91;;;11.62;100.00
7832;BME280;3961;42.058;25.586;2023-04-04T06:39:51;63659.66;;;12.78;100.00
7832;BME280;3961;42.058;25.586;2023-04-04T06:42:16;63652.69;;;12.72;100.00
7832;BME280;3961;42.058;25.586;2023-04-04T06:44:42;63484.25;;;11.29;100.00
7832;BME280;3961;42.058;25.586;2023-04-04T06:47:07;63562.44;;;11.93;100.00
7832;BME280;3961;42.058;25.586;2023-04-04T06:49:33;63540.69;;;11.76;100.00
7832;BME280;3961;42.058;25.586;2023-04-04T06:51:59;63532.59;;;11.69;100.00
7832;BME280;3961;42.058;25.586;2023-04-04T06:54:25;63529.81;;;11.62;100.00
7832;BME280;3961;42.058;25.586;2023-04-04T06:56:51;63515.34;;;11.50;100.00
7832;BME280;3961;42.058;25.586;2023-04-04T06:59:17;63516.16;;;11.53;100.00
7832;BME280;3961;42.058;25.586;2023-04-04T07:01:43;63512.56;;;11.54;100.00
7832;BME280;3961;42.058;25.586;2023-04-04T07:04:09;63519.28;;;11.58;100.00
7832;BME280;3961;42.058;25.586;2023-04-04T07:06:34;63530.84;;;11.68;100.00
7832;BME280;3961;42.058;25.586;2023-04-04T07:09:00;63518.13;;;11.57;100.00
7832;BME280;3961;42.058;25.586;2023-04-04T07:11:27;63540.78;;;11.72;100.00
7832;BME280;3961;42.058;25.586;2023-04-04T07:13:53;63526.56;;;11.62;100.00
7832;BME280;3961;42.058;25.586;2023-04-04T07:16:19;63529.47;;;11.64;100.00
7832;BME280;3961;42.058;25.586;2023-04-04T07:18:44;63555.16;;;11.89;100.00
7832;BME280;3961;42.058;25.586;2023-04-04T07:21:10;63549.72;;;11.82;100.00
7832;BME280;3961;42.058;25.586;2023-04-04T07:23:35;63551.69;;;11.86;100.00
7832;BME280;3961;42.058;25.586;2023-04-04T07:26:01;63543.00;;;11.78;100.00
7832;BME280;3961;42.058;25.586;2023-04-04T07:28:27;63549.72;;;11.82;100.00
7832;BME280;3961;42.058;25.586;2023-04-04T07:30:52;63583.50;;;12.14;100.00
7832;BME280;3961;42.058;25.586;2023-04-04T07:33:18;63555.38;;;11.92;100.00
7832;BME280;3961;42.058;25.586;2023-04-04T07:35:43;63573.66;;;12.05;100.00
7832;BME280;3961;42.058;25.586;2023-04-04T07:38:09;63559.78;;;11.93;100.00
7832;BME280;3961;42.058;25.586;2023-04-04T07:40:34;63563.59;;;11.94;100.00
7832;BME280;3961;42.058;25.586;2023-04-04T07:43:00;63556.66;;;11.88;100.00
7832;BME280;3961;42.058;25.586;2023-04-04T07:45:26;63593.44;;;12.18;100.00
7832;BME280;3961;42.058;25.586;2023-04-04T07:47:51;63570.19;;;12.02;100.00
7832;BME280;3961;42.058;25.586;2023-04-04T07:50:17;63572.72;;;12.07;100.00
7832;BME280;3961;42.058;25.586;2023-04-04T07:52:47;63576.31;;;12.05;100.00
7832;BME280;3961;42.058;25.586;2023-04-04T07:55:15;63587.66;;;12.13;100.00
7832;BME280;3961;42.058;25.586;2023-04-04T07:57:41;63594.94;;;12.17;100.00
7832;BME280;3961;42.058;25.586;2023-04-04T08:00:07;63581.75;;;12.13;100.00
7832;BME280;3961;42.058;25.586;2023-04-04T08:02:36;63614.84;;;12.37;100.00
7832;BME280;3961;42.058;25.586;2023-04-04T08:05:02;63608.72;;;12.34;100.00
7832;BME280;3961;42.058;25.586;2023-04-04T08:07:28;63617.06;;;12.43;100.00
7832;BME280;3961;42.058;25.586;2023-04-04T08:09:54;63637.09;;;12.59;100.00
7832;BME280;3961;42.058;25.586;2023-04-04T08:12:19;63650.16;;;12.68;100.00
7832;BME280;3961;42.058;25.586;2023-04-04T08:14:45;63675.06;;;12.90;100.00
7832;BME280;3961;42.058;25.586;2023-04-04T08:17:11;63684.53;;;13.00;100.00
7832;BME280;3961;42.058;25.586;2023-04-04T08:19:37;63680.16;;;12.99;100.00
7832;BME280;3961;42.058;25.586;2023-04-04T08:22:02;63680.84;;;12.95;100.00
7832;BME280;3961;42.058;25.586;2023-04-04T08:24:28;63706.81;;;13.22;100.00
7832;BME280;3961;42.058;25.586;2023-04-04T08:26:53;63717.59;;;13.29;100.00
7832;BME280;3961;42.058;25.586;2023-04-04T08:29:19;63699.59;;;13.13;100.00
7832;BME280;3961;42.058;25.586;2023-04-04T08:31:45;63677.50;;;12.99;100.00
7832;BME280;3961;42.058;25.586;2023-04-04T08:34:10;63705.44;;;13.19;100.00
7832;BME280;3961;42.058;25.586;2023-04-04T08:36:36;63725.09;;;13.36;100.00
7832;BME280;3961;42.058;25.586;2023-04-04T08:39:02;63747.94;;;13.58;100.00
7832;BME280;3961;42.058;25.586;2023-04-04T08:41:28;63780.16;;;13.84;100.00
7832;BME280;3961;42.058;25.586;2023-04-04T08:43:56;63756.19;;;13.61;100.00
7832;BME280;3961;42.058;25.586;2023-04-04T08:46:24;63782.50;;;13.86;100.00
7832;BME280;3961;42.058;25.586;2023-04-04T08:48:51;63777.28;;;13.82;100.00
7832;BME280;3961;42.058;25.586;2023-04-04T08:51:19;63736.34;;;13.48;100.00
7832;BME280;3961;42.058;25.586;2023-04-04T08:53:45;63802.19;;;14.03;100.00
7832;BME280;3961;42.058;25.586;2023-04-04T08:56:11;63819.81;;;14.21;100.00
7832;BME280;3961;42.058;25.586;2023-04-04T08:58:38;63807.19;;;14.05;100.00
7832;BME280;3961;42.058;25.586;2023-04-04T09:01:04;63811.13;;;14.13;100.00
7832;BME280;3961;42.058;25.586;2023-04-04T09:03:32;63816.34;;;14.18;100.00
7832;BME280;3961;42.058;25.586;2023-04-04T09:05:58;63825.97;;;14.24;100.00
7832;BME280;3961;42.058;25.586;2023-04-04T09:08:25;63810.88;;;14.11;100.00
7832;BME280;3961;42.058;25.586;2023-04-04T09:10:51;63833.50;;;14.31;100.00
7832;BME280;3961;42.058;25.586;2023-04-04T09:13:17;63814.13;;;14.11;100.00
7832;BME280;3961;42.058;25.586;2023-04-04T09:15:48;63826.78;;;14.27;100.00
7832;BME280;3961;42.058;25.586;2023-04-04T09:18:14;63812.41;;;14.10;100.00
7832;BME280;3961;42.058;25.586;2023-04-04T09:20:42;63801.38;;;14.00;100.00
7832;BME280;3961;42.058;25.586;2023-04-04T09:23:15;63801.25;;;14.05;100.00
7832;BME280;3961;42.058;25.586;2023-04-04T09:25:52;63808.81;;;14.11;100.00
7832;BME280;3961;42.058;25.586;2023-04-04T09:28:18;63819.94;;;14.17;100.00
7832;BME280;3961;42.058;25.586;2023-04-04T09:30:49;63810.66;;;14.08;100.00
7832;BME280;3961;42.058;25.586;2023-04-04T09:33:16;63838.72;;;14.35;100.00
7832;BME280;3961;42.058;25.586;2023-04-04T09:35:48;63806.25;;;14.07;100.00
7832;BME280;3961;42.058;25.586;2023-04-04T09:38:16;63774.03;;;13.81;100.00
7832;BME280;3961;42.058;25.586;2023-04-04T09:40:43;63765.31;;;13.73;100.00
7832;BME280;3961;42.058;25.586;2023-04-04T09:43:11;63760.81;;;13.65;100.00
7832;BME280;3961;42.058;25.586;2023-04-04T09:45:39;63758.94;;;13.68;100.00
7832;BME280;3961;42.058;25.586;2023-04-04T09:48:06;63744.25;;;13.53;100.00
7832;BME280;3961;42.058;25.586;2023-04-04T09:50:35;63762.44;;;13.71;100.00
7832;BME280;3961;42.058;25.586;2023-04-04T09:53:01;63765.44;;;13.69;100.00
7832;BME280;3961;42.058;25.586;2023-04-04T09:55:35;63797.19;;;14.01;100.00
7832;BME280;3961;42.058;25.586;2023-04-04T09:58:17;63799.06;;;13.98;100.00
7832;BME280;3961;42.058;25.586;2023-04-04T10:00:46;63825.63;;;14.26;100.00
7832;BME280;3961;42.058;25.586;2023-04-04T10:03:15;63859.41;;;14.51;100.00
7832;BME280;3961;42.058;25.586;2023-04-04T10:05:44;63850.00;;;14.48;100.00
7832;BME280;3961;42.058;25.586;2023-04-04T10:08:16;63864.03;;;14.55;100.00
7832;BME280;3961;42.058;25.586;2023-04-04T10:10:56;63870.44;;;14.61;100.00
7832;BME280;3961;42.058;25.586;2023-04-04T10:13:23;63841.03;;;14.37;100.00
7832;BME280;3961;42.058;25.586;2023-04-04T10:15:50;63831.53;;;14.27;100.00
7832;BME280;3961;42.058;25.586;2023-04-04T10:18:18;63816.56;;;14.21;100.00
7832;BME280;3961;42.058;25.586;2023-04-04T10:20:44;63851.38;;;14.51;100.00
7832;BME280;3961;42.058;25.586;2023-04-04T10:23:12;63872.97;;;14.65;100.00
7832;BME280;3961;42.058;25.586;2023-04-04T10:25:38;63890.16;;;14.78;100.00
7832;BME280;3961;42.058;25.586;2023-04-04T10:28:04;63860.78;;;14.55;100.00
7832;BME280;3961;42.058;25.586;2023-04-04T10:30:33;63889.78;;;14.80;100.00
7832;BME280;3961;42.058;25.586;2023-04-04T10:33:19;63856.38;;;14.53;100.00
7832;BME280;3961;42.058;25.586;2023-04-04T10:35:50;63858.47;;;14.53;100.00
7832;BME280;3961;42.058;25.586;2023-04-04T10:38:20;63805.09;;;14.06;100.00
7832;BME280;3961;42.058;25.586;2023-04-04T10:40:47;63845.13;;;14.41;100.00
7832;BME280;3961;42.058;25.586;2023-04-04T10:43:19;63840.13;;;14.39;100.00
7832;BME280;3961;42.058;25.586;2023-04-04T10:45:49;63835.25;;;14.32;100.00
7832;BME280;3961;42.058;25.586;2023-04-04T10:48:15;63852.09;;;14.47;100.00
7832;BME280;3961;42.058;25.586;2023-04-04T10:50:41;63876.09;;;14.70;100.00
7832;BME280;3961;42.058;25.586;2023-04-04T10:53:07;63874.69;;;14.67;100.00
7832;BME280;3961;42.058;25.586;2023-04-04T10:55:34;63869.47;;;14.62;100.00
7832;BME280;3961;42.058;25.586;2023-04-04T10:58:01;63894.09;;;14.86;100.00
7832;BME280;3961;42.058;25.586;2023-04-04T11:00:27;63891.19;;;14.84;100.00
7832;BME280;3961;42.058;25.586;2023-04-04T11:02:56;63910.31;;;15.00;100.00
7832;BME280;3961;42.058;25.586;2023-04-04T11:05:32;63932.97;;;15.20;100.00
7832;BME280;3961;42.058;25.586;2023-04-04T11:08:06;63903.59;;;14.97;100.00
7832;BME280;3961;42.058;25.586;2023-04-04T11:10:37;63905.09;;;14.96;100.00
7832;BME280;3961;42.058;25.586;2023-04-04T11:13:10;63921.47;;;15.05;100.00
7832;BME280;3961;42.058;25.586;2023-04-04T11:18:44;63971.06;;;15.51;100.00
7832;BME280;3961;42.058;25.586;2023-04-04T11:21:17;64002.44;;;15.78;100.00
7832;BME280;3961;42.058;25.586;2023-04-04T11:26:16;64003.16;;;15.74;100.00
7832;BME280;3961;42.058;25.586;2023-04-04T11:28:44;64003.03;;;15.79;100.00
7832;BME280;3961;42.058;25.586;2023-04-04T11:34:10;64017.19;;;15.94;100.00
7832;BME280;3961;42.058;25.586;2023-04-04T11:39:29;63934.25;;;15.17;100.00
7832;BME280;3961;42.058;25.586;2023-04-04T11:42:03;63976.28;;;15.56;100.00
7832;BME280;3961;42.058;25.586;2023-04-04T11:44:32;63991.88;;;15.74;100.00
7832;BME280;3961;42.058;25.586;2023-04-04T11:47:18;64015.22;;;15.90;100.00
7832;BME280;3961;42.058;25.586;2023-04-04T11:49:45;64030.69;;;16.01;100.00
7832;BME280;3961;42.058;25.586;2023-04-04T11:52:15;64002.22;;;15.76;100.00
7832;BME280;3961;42.058;25.586;2023-04-04T11:54:43;64002.78;;;15.76;100.00
7832;BME280;3961;42.058;25.586;2023-04-04T11:57:10;63992.34;;;15.67;100.00
7832;BME280;3961;42.058;25.586;2023-04-04T11:59:46;63980.94;;;15.60;100.00
7832;BME280;3961;42.058;25.586;2023-04-04T12:02:14;63984.78;;;15.61;100.00
7832;BME280;3961;42.058;25.586;2023-04-04T12:04:41;63985.25;;;15.66;100.00
7832;BME280;3961;42.058;25.586;2023-04-04T12:07:10;64003.72;;;15.75;100.00
7832;BME280;3961;42.058;25.586;2023-04-04T12:09:37;63995.47;;;15.72;100.00
7832;BME280;3961;42.058;25.586;2023-04-04T12:12:03;63998.72;;;15.73;100.00
7832;BME280;3961;42.058;25.586;2023-04-04T12:14:31;64004.19;;;15.80;100.00
7832;BME280;3961;42.058;25.586;2023-04-04T12:16:57;63992.91;;;15.68;100.00
7832;BME280;3961;42.058;25.586;2023-04-04T12:19:26;64019.06;;;15.91;100.00
7832;BME280;3961;42.058;25.586;2023-04-04T12:21:52;63982.09;;;15.61;100.00
7832;BME280;3961;42.058;25.586;2023-04-04T12:24:18;63987.34;;;15.65;100.00
7832;BME280;3961;42.058;25.586;2023-04-04T12:26:46;64002.22;;;15.76;100.00
7832;BME280;3961;42.058;25.586;2023-04-04T12:29:14;64020.44;;;15.94;100.00
7832;BME280;3961;42.058;25.586;2023-04-04T12:31:42;64045.66;;;16.19;100.00
7832;BME280;3961;42.058;25.586;2023-04-04T12:34:39;64041.72;;;16.10;100.00
7832;BME280;3961;42.058;25.586;2023-04-04T12:37:08;64006.16;;;15.84;100.00
7832;BME280;3961;42.058;25.586;2023-04-04T12:39:39;64031.25;;;16.01;100.00
7832;BME280;3961;42.058;25.586;2023-04-04T12:42:04;64000.94;;;15.79;100.00
7832;BME280;3961;42.058;25.586;2023-04-04T12:44:36;63985.25;;;15.66;100.00
7832;BME280;3961;42.058;25.586;2023-04-04T12:47:06;63977.47;;;15.57;100.00
7832;BME280;3961;42.058;25.586;2023-04-04T12:49:40;64012.09;;;15.85;100.00
7832;BME280;3961;42.058;25.586;2023-04-04T12:52:19;64012.31;;;15.87;100.00
7832;BME280;3961;42.058;25.586;2023-04-04T12:54:46;64005.13;;;15.78;100.00
7832;BME280;3961;42.058;25.586;2023-04-04T12:57:17;63988.25;;;15.64;100.00
7832;BME280;3961;42.058;25.586;2023-04-04T12:59:46;63878.19;;;14.70;100.00
7832;BME280;3961;42.058;25.586;2023-04-04T13:02:14;63961.19;;;15.42;100.00
7832;BME280;3961;42.058;25.586;2023-04-04T13:04:45;63927.53;;;15.13;100.00
7832;BME280;3961;42.058;25.586;2023-04-04T13:07:26;63920.56;;;15.07;100.00
7832;BME280;3961;42.058;25.586;2023-04-04T13:09:59;63918.47;;;15.07;100.00
7832;BME280;3961;42.058;25.586;2023-04-04T13:12:25;63936.81;;;15.21;100.00